createdAt,value
2023-09-01T00:00:00.300Z,100610.97
2023-09-01T00:01:06.194Z,100616.16
2023-09-01T00:02:11.789Z,100627.43
2023-09-01T00:03:17.429Z,100619.36
2023-09-01T00:04:23.115Z,100619.36
2023-09-01T00:05:28.625Z,100622.13
2023-09-01T00:06:34.152Z,100615.33
2023-09-01T00:07:39.691Z,100615.49
2023-09-01T00:08:45.162Z,100612.06
2023-09-01T00:09:50.641Z,100615.27
2023-09-01T00:10:56.276Z,100613
2023-09-01T00:12:01.756Z,100612.47
2023-09-01T00:13:07.230Z,100617.52
2023-09-01T00:14:12.740Z,100619.19
2023-09-01T00:15:18.262Z,100622.73
2023-09-01T00:16:23.864Z,100619.72
2023-09-01T00:17:29.555Z,100623.67
2023-09-01T00:18:35.132Z,100623.67
2023-09-01T00:19:40.611Z,100624.48
2023-09-01T00:20:46.129Z,100627.02
2023-09-01T00:21:51.621Z,100626.17
2023-09-01T00:22:57.175Z,100628.52
2023-09-01T00:24:02.650Z,100627.26
2023-09-01T00:25:08.122Z,100628.11
2023-09-01T00:26:13.628Z,100628.11
2023-09-01T00:27:19.096Z,100625.42
2023-09-01T00:28:24.606Z,100623.56
2023-09-01T00:29:30.130Z,100624.41
2023-09-01T00:30:35.711Z,100622.81
2023-09-01T00:31:41.271Z,100624.08
2023-09-01T00:32:46.825Z,100626.77
2023-09-01T00:33:52.394Z,100627.18
2023-09-01T00:34:57.854Z,100627.78
2023-09-01T00:36:03.415Z,100625.58
2023-09-01T00:37:11.433Z,100626.52
2023-09-01T00:38:17.309Z,100622.89
2023-09-01T00:39:22.970Z,100627.26
2023-09-01T00:40:28.483Z,100625.02
2023-09-01T00:41:33.984Z,100624.57
2023-09-01T00:42:39.486Z,100623.34
2023-09-01T00:43:44.943Z,100618.45
2023-09-01T00:44:50.459Z,100624.68
2023-09-01T00:45:56.199Z,100616.28
2023-09-01T00:47:02.122Z,100618.97
2023-09-01T00:48:07.664Z,100614.61
2023-09-01T00:49:13.217Z,100621.55
2023-09-01T00:50:18.729Z,100621.55
2023-09-01T00:51:24.188Z,100605.53
2023-09-01T00:52:29.701Z,100617.52
2023-09-01T00:53:35.221Z,100609.98
2023-09-01T00:54:40.699Z,100609.04
2023-09-01T00:55:46.209Z,100611.81
2023-09-01T00:56:51.689Z,100608.3
2023-09-01T00:57:57.153Z,100607.78
2023-09-01T00:59:02.610Z,100613.59
2023-09-01T01:00:08.231Z,100616.28
2023-09-01T01:01:13.807Z,100617.52
2023-09-01T01:02:19.392Z,100616.7
2023-09-01T01:03:25.216Z,100619.3
2023-09-01T01:04:30.902Z,100617.11
2023-09-01T01:05:36.529Z,100616.7
2023-09-01T01:06:42.019Z,100616.7
2023-09-01T01:07:47.517Z,100612.47
2023-09-01T01:08:53.010Z,100607.2
2023-09-01T01:09:58.485Z,100602.41
2023-09-01T01:11:03.986Z,100604.59
2023-09-01T01:12:09.640Z,100611.81
2023-09-01T01:13:15.096Z,100603.75
2023-09-01T01:14:20.631Z,100610.05
2023-09-01T01:15:26.120Z,100606.87
2023-09-01T01:16:31.706Z,100601.58
2023-09-01T01:17:37.424Z,100601.98
2023-09-01T01:18:42.927Z,100608.71
2023-09-01T01:19:48.439Z,100617.19
2023-09-01T01:20:53.974Z,100612.33
2023-09-01T01:21:59.683Z,100609.23
2023-09-01T01:23:05.161Z,100607.45
2023-09-01T01:24:10.645Z,100614.61
2023-09-01T01:25:16.210Z,100611.81
2023-09-01T01:26:21.781Z,100619.13
2023-09-01T01:27:27.274Z,100610.58
2023-09-01T01:28:32.761Z,100616.36
2023-09-01T01:29:38.255Z,100618.12
2023-09-01T01:30:43.742Z,100613.75
2023-09-01T01:31:49.414Z,100622.75
2023-09-01T01:32:55.071Z,100623.16
2023-09-01T01:34:00.626Z,100623.24
2023-09-01T01:35:06.078Z,100622.83
2023-09-01T01:36:11.542Z,100626.38
2023-09-01T01:37:17.028Z,100628.13
2023-09-01T01:38:22.547Z,100629.96
2023-09-01T01:39:28.034Z,100634.84
2023-09-01T01:40:33.496Z,100640.22
2023-09-01T01:41:38.974Z,100638.14
2023-09-01T01:42:44.460Z,100645.68
2023-09-01T01:43:49.990Z,100641.05
2023-09-01T01:44:55.468Z,100643.73
2023-09-01T01:46:01.048Z,100636.11
2023-09-01T01:47:06.615Z,100634.92
2023-09-01T01:48:12.518Z,100642.91
2023-09-01T01:49:18.871Z,100638.95
2023-09-01T01:50:24.337Z,100639.89
2023-09-01T01:51:29.864Z,100633.17
2023-09-01T01:52:35.349Z,100637.28
2023-09-01T01:53:40.846Z,100644.34
2023-09-01T01:54:46.406Z,100644.34
2023-09-01T01:55:51.983Z,100635.67
2023-09-01T01:56:57.518Z,100632.98
2023-09-01T01:58:03.083Z,100639.81
2023-09-01T01:59:10.843Z,100639.48
2023-09-01T02:00:16.713Z,100638.88
2023-09-01T02:01:22.281Z,100641.72
2023-09-01T02:02:28.122Z,100643.33
2023-09-01T02:03:33.622Z,100635.26
2023-09-01T02:04:39.131Z,100648.7
2023-09-01T02:05:44.687Z,100641.98
2023-09-01T02:06:50.180Z,100643.84
2023-09-01T02:07:55.720Z,100641.16
2023-09-01T02:09:01.205Z,100650.89
2023-09-01T02:10:06.765Z,100649.55
2023-09-01T02:11:12.262Z,100650.98
2023-09-01T02:12:17.797Z,100653.25
2023-09-01T02:13:23.311Z,100649.63
2023-09-01T02:14:28.797Z,100649.8
2023-09-01T02:15:34.327Z,100651.05
2023-09-01T02:16:40.014Z,100647.95
2023-09-01T02:17:45.550Z,100651.58
2023-09-01T02:18:51.126Z,100647.95
2023-09-01T02:19:56.656Z,100651.58
2023-09-01T02:21:02.194Z,100651.13
2023-09-01T02:22:07.706Z,100645.76
2023-09-01T02:23:13.200Z,100649.8
2023-09-01T02:24:18.737Z,100648.56
2023-09-01T02:25:24.341Z,100644
2023-09-01T02:26:29.826Z,100648.45
2023-09-01T02:27:35.312Z,100649.3
2023-09-01T02:28:40.807Z,100657.03
2023-09-01T02:29:46.329Z,100657.36
2023-09-01T02:30:51.880Z,100657.36
2023-09-01T02:31:57.474Z,100655.61
2023-09-01T02:33:03.096Z,100656.95
2023-09-01T02:34:08.734Z,100655.61
2023-09-01T02:35:14.251Z,100657.86
2023-09-01T02:36:19.760Z,100662.33
2023-09-01T02:37:25.228Z,100653.93
2023-09-01T02:38:30.713Z,100659.64
2023-09-01T02:39:36.213Z,100652.48
2023-09-01T02:40:41.704Z,100663.67
2023-09-01T02:41:47.221Z,100654.42
2023-09-01T02:42:52.674Z,100661.89
2023-09-01T02:43:58.164Z,100662.33
2023-09-01T02:45:03.621Z,100661.89
2023-09-01T02:46:09.333Z,100661.39
2023-09-01T02:47:14.947Z,100655.69
2023-09-01T02:48:20.407Z,100666.77
2023-09-01T02:49:25.899Z,100665.51
2023-09-01T02:50:31.392Z,100660.05
2023-09-01T02:51:36.907Z,100663.16
2023-09-01T02:52:42.396Z,100663.56
2023-09-01T02:53:47.927Z,100656.51
2023-09-01T02:54:53.423Z,100661.06
2023-09-01T02:55:58.898Z,100653.93
2023-09-01T02:57:04.457Z,100660.46
2023-09-01T02:58:09.957Z,100662
2023-09-01T02:59:15.449Z,100664.23
2023-09-01T03:00:21.340Z,100667.86
2023-09-01T03:01:26.865Z,100658.87
2023-09-01T03:02:32.429Z,100662
2023-09-01T03:03:38.235Z,100666.03
2023-09-01T03:04:44.208Z,100666.52
2023-09-01T03:05:49.671Z,100662.48
2023-09-01T03:06:55.181Z,100661.14
2023-09-01T03:08:00.697Z,100662.56
2023-09-01T03:09:06.344Z,100660.4
2023-09-01T03:10:11.894Z,100659.05
2023-09-01T03:11:17.388Z,100662.23
2023-09-01T03:12:22.922Z,100662.16
2023-09-01T03:13:28.405Z,100665.77
2023-09-01T03:14:33.921Z,100666.19
2023-09-01T03:15:39.420Z,100665.25
2023-09-01T03:16:45.033Z,100663.91
2023-09-01T03:17:50.740Z,100663.01
2023-09-01T03:18:56.329Z,100665.17
2023-09-01T03:20:02.160Z,100658.38
2023-09-01T03:21:07.792Z,100662.41
2023-09-01T03:22:13.462Z,100659.64
2023-09-01T03:23:19.191Z,100652.4
2023-09-01T03:24:24.941Z,100656.43
2023-09-01T03:25:30.528Z,100652.4
2023-09-01T03:26:36.124Z,100658.03
2023-09-01T03:27:41.756Z,100660.87
2023-09-01T03:28:47.410Z,100654
2023-09-01T03:29:53.046Z,100649.63
2023-09-01T03:30:58.766Z,100658.03
2023-09-01T03:32:04.571Z,100657.02
2023-09-01T03:33:10.441Z,100654.73
2023-09-01T03:34:16.170Z,100659.95
2023-09-01T03:35:21.943Z,100660.78
2023-09-01T03:36:27.616Z,100660.18
2023-09-01T03:37:33.359Z,100656.14
2023-09-01T03:38:39.115Z,100658.34
2023-09-01T03:39:44.738Z,100650.69
2023-09-01T03:40:50.333Z,100655.47
2023-09-01T03:41:56.022Z,100657.34
2023-09-01T03:43:01.689Z,100661.78
2023-09-01T03:44:07.355Z,100655.05
2023-09-01T03:45:13.014Z,100661.65
2023-09-01T03:46:18.849Z,100664.75
2023-09-01T03:47:24.478Z,100664.23
2023-09-01T03:48:30.036Z,100660.2
2023-09-01T03:49:35.715Z,100662.28
2023-09-01T03:50:41.196Z,100662.8
2023-09-01T03:51:46.768Z,100665.91
2023-09-01T03:52:52.240Z,100661.85
2023-09-01T03:53:57.772Z,100665.55
2023-09-01T03:55:03.269Z,100666.08
2023-09-01T03:56:08.757Z,100661.6
2023-09-01T03:57:14.399Z,100665.14
2023-09-01T03:58:19.926Z,100663.59
2023-09-01T03:59:25.435Z,100663.18
2023-09-01T04:00:30.892Z,100668.09
2023-09-01T04:01:36.484Z,100667.93
2023-09-01T04:02:42.108Z,100665.41
2023-09-01T04:03:50.312Z,100664.84
2023-09-01T04:04:55.948Z,100661.08
2023-09-01T04:06:01.420Z,100657.06
2023-09-01T04:07:06.947Z,100662.7
2023-09-01T04:08:12.650Z,100657.07
2023-09-01T04:09:18.663Z,100662.86
2023-09-01T04:10:24.168Z,100663.38
2023-09-01T04:11:29.751Z,100658.08
2023-09-01T04:12:35.313Z,100663.87
2023-09-01T04:13:40.786Z,100667.33
2023-09-01T04:14:46.266Z,100667.82
2023-09-01T04:15:51.784Z,100670.35
2023-09-01T04:16:57.303Z,100664.53
2023-09-01T04:18:02.876Z,100670.51
2023-09-01T04:19:08.716Z,100672.86
2023-09-01T04:20:14.676Z,100671.11
2023-09-01T04:21:20.573Z,100673.38
2023-09-01T04:22:26.164Z,100670.19
2023-09-01T04:23:31.714Z,100676.23
2023-09-01T04:24:37.514Z,100673.46
2023-09-01T04:25:42.995Z,100679.44
2023-09-01T04:26:48.502Z,100676.91
2023-09-01T04:27:53.986Z,100676.3
2023-09-01T04:28:59.447Z,100675.89
2023-09-01T04:30:12.048Z,100676.64
2023-09-01T04:31:17.545Z,100681.19
2023-09-01T04:32:23.120Z,100674.55
2023-09-01T04:33:28.695Z,100675.73
2023-09-01T04:34:34.170Z,100678.58
2023-09-01T04:35:39.663Z,100679.1
2023-09-01T04:36:49.171Z,100677.99
2023-09-01T04:37:54.616Z,100683.06
2023-09-01T04:39:00.141Z,100676.02
2023-09-01T04:40:05.616Z,100673.33
2023-09-01T04:41:11.167Z,100684.41
2023-09-01T04:42:16.658Z,100688.84
2023-09-01T04:43:22.176Z,100686.58
2023-09-01T04:44:27.667Z,100685.64
2023-09-01T04:45:33.215Z,100688
2023-09-01T04:46:38.865Z,100683.41
2023-09-01T04:47:44.329Z,100685.66
2023-09-01T04:48:49.882Z,100684.75
2023-09-01T04:49:55.396Z,100690.2
2023-09-01T04:51:00.873Z,100688.94
2023-09-01T04:52:06.387Z,100686.09
2023-09-01T04:53:13.968Z,100694.23
2023-09-01T04:54:19.474Z,100692.48
2023-09-01T04:55:25.014Z,100688
2023-09-01T04:56:30.540Z,100694.23
2023-09-01T04:57:37.062Z,100692.22
2023-09-01T04:58:42.519Z,100691.29
2023-09-01T04:59:47.951Z,100692.03
2023-09-01T05:00:53.484Z,100699.61
2023-09-01T05:01:59.160Z,100700.2
2023-09-01T05:03:04.939Z,100695.32
2023-09-01T05:04:12.624Z,100694.39
2023-09-01T05:05:18.134Z,100693.48
2023-09-01T05:06:23.639Z,100692.82
2023-09-01T05:07:29.127Z,100692.22
2023-09-01T05:08:34.636Z,100689.95
2023-09-01T05:09:40.133Z,100693.72
2023-09-01T05:10:45.648Z,100694.5
2023-09-01T05:11:51.202Z,100692.56
2023-09-01T05:12:56.673Z,100695.84
2023-09-01T05:14:02.151Z,100696.85
2023-09-01T05:15:07.651Z,100692.48
2023-09-01T05:16:15.462Z,100696.59
2023-09-01T05:17:21.024Z,100700.55
2023-09-01T05:18:26.520Z,100697.41
2023-09-01T05:19:32.008Z,100703.56
2023-09-01T05:20:37.501Z,100700.95
2023-09-01T05:21:43.010Z,100702.3
2023-09-01T05:22:48.542Z,100703.23
2023-09-01T05:23:54.208Z,100694.73
2023-09-01T05:24:59.746Z,100696.26
2023-09-01T05:26:05.252Z,100693.58
2023-09-01T05:27:10.696Z,100701.97
2023-09-01T05:28:16.574Z,100700.21
2023-09-01T05:29:22.221Z,100706.41
2023-09-01T05:30:27.748Z,100707.75
2023-09-01T05:31:33.356Z,100706.93
2023-09-01T05:32:38.963Z,100709.17
2023-09-01T05:33:44.518Z,100716.82
2023-09-01T05:34:50.002Z,100711.45
2023-09-01T05:35:55.519Z,100709.69
2023-09-01T05:37:01.019Z,100712.71
2023-09-01T05:38:06.509Z,100712.8
2023-09-01T05:39:11.957Z,100705.25
2023-09-01T05:40:17.447Z,100709.61
2023-09-01T05:41:22.959Z,100709.28
2023-09-01T05:42:28.441Z,100708.42
2023-09-01T05:43:33.970Z,100704.39
2023-09-01T05:44:39.469Z,100710.1
2023-09-01T05:45:45.019Z,100713.8
2023-09-01T05:46:50.782Z,100711.19
2023-09-01T05:47:56.365Z,100709.02
2023-09-01T05:49:02.247Z,100712.88
2023-09-01T05:50:07.723Z,100717.76
2023-09-01T05:51:13.293Z,100715.41
2023-09-01T05:52:18.774Z,100715.48
2023-09-01T05:53:24.304Z,100716
2023-09-01T05:54:29.824Z,100721.12
2023-09-01T05:55:35.364Z,100715.82
2023-09-01T05:56:40.863Z,100721.79
2023-09-01T05:57:46.330Z,100723.05
2023-09-01T05:58:54.166Z,100725
2023-09-01T05:59:59.712Z,100729.92
2023-09-01T06:01:05.286Z,100730.59
2023-09-01T06:02:11.798Z,100729.85
2023-09-01T06:03:17.471Z,100735.3
2023-09-01T06:04:23.170Z,100737.09
2023-09-01T06:05:28.666Z,100731.45
2023-09-01T06:06:34.263Z,100733.62
2023-09-01T06:07:39.745Z,100734.06
2023-09-01T06:08:47.883Z,100741.69
2023-09-01T06:09:53.356Z,100734.22
2023-09-01T06:10:58.825Z,100734.14
2023-09-01T06:12:04.348Z,100729.59
2023-09-01T06:13:09.842Z,100735.97
2023-09-01T06:14:15.336Z,100731.13
2023-09-01T06:15:20.828Z,100736.98
2023-09-01T06:16:26.351Z,100739.25
2023-09-01T06:17:47.697Z,100731.38
2023-09-01T06:18:53.270Z,100741.45
2023-09-01T06:19:58.728Z,100742.95
2023-09-01T06:21:04.233Z,100741.45
2023-09-01T06:22:09.730Z,100740.94
2023-09-01T06:23:15.240Z,100739.77
2023-09-01T06:24:20.715Z,100738.51
2023-09-01T06:25:26.170Z,100734.97
2023-09-01T06:26:31.754Z,100740.78
2023-09-01T06:27:37.279Z,100739.85
2023-09-01T06:28:42.929Z,100748.99
2023-09-01T06:29:48.397Z,100744.22
2023-09-01T06:30:54.024Z,100738.92
2023-09-01T06:31:59.636Z,100738.51
2023-09-01T06:33:05.211Z,100739.33
2023-09-01T06:34:10.755Z,100751.34
2023-09-01T06:35:16.341Z,100744.63
2023-09-01T06:36:21.894Z,100745.89
2023-09-01T06:37:27.356Z,100753.54
2023-09-01T06:38:32.848Z,100752.69
2023-09-01T06:39:38.324Z,100745.04
2023-09-01T06:40:43.860Z,100745.71
2023-09-01T06:41:49.356Z,100743.36
2023-09-01T06:42:54.891Z,100749.73
2023-09-01T06:44:00.402Z,100754.36
2023-09-01T06:45:05.999Z,100746.3
2023-09-01T06:46:11.535Z,100749.92
2023-09-01T06:47:17.149Z,100757.8
2023-09-01T06:48:22.681Z,100751.94
2023-09-01T06:49:28.246Z,100756.9
2023-09-01T06:50:33.739Z,100755.97
2023-09-01T06:51:40.585Z,100750.19
2023-09-01T06:52:48.050Z,100753.54
2023-09-01T06:53:53.804Z,100756.38
2023-09-01T06:54:59.362Z,100754.36
2023-09-01T06:56:04.869Z,100756.9
2023-09-01T06:57:10.358Z,100757.72
2023-09-01T06:58:16.791Z,100765.36
2023-09-01T06:59:25.763Z,100762.6
2023-09-01T07:00:31.338Z,100750.11
2023-09-01T07:01:36.924Z,100757.23
2023-09-01T07:02:42.516Z,100762.09
2023-09-01T07:03:48.157Z,100759.66
2023-09-01T07:04:53.701Z,100756.97
2023-09-01T07:05:59.269Z,100755.11
2023-09-01T07:07:05.037Z,100757.38
2023-09-01T07:08:10.503Z,100761
2023-09-01T07:09:16.318Z,100757.38
2023-09-01T07:10:21.804Z,100757.49
2023-09-01T07:11:27.952Z,100766.55
2023-09-01T07:12:33.454Z,100760.59
2023-09-01T07:13:38.958Z,100764.28
2023-09-01T07:14:44.456Z,100755.37
2023-09-01T07:15:50.036Z,100756.15
2023-09-01T07:16:55.614Z,100763.43
2023-09-01T07:18:01.181Z,100763.09
2023-09-01T07:19:06.770Z,100757.72
2023-09-01T07:20:12.483Z,100758.05
2023-09-01T07:21:18.116Z,100759.5
2023-09-01T07:22:23.620Z,100760.33
2023-09-01T07:23:29.226Z,100753.2
2023-09-01T07:24:35.917Z,100754.55
2023-09-01T07:25:41.452Z,100755.48
2023-09-01T07:26:46.905Z,100755.97
2023-09-01T07:27:52.481Z,100756.3
2023-09-01T07:28:57.981Z,100755.89
2023-09-01T07:30:03.474Z,100764.54
2023-09-01T07:31:09.179Z,100762.68
2023-09-01T07:32:14.737Z,100759.73
2023-09-01T07:33:20.395Z,100769.39
2023-09-01T07:34:25.990Z,100769.05
2023-09-01T07:35:31.490Z,100774.42
2023-09-01T07:36:36.998Z,100772.27
2023-09-01T07:37:42.536Z,100772.67
2023-09-01T07:38:48.082Z,100770.66
2023-09-01T07:39:53.592Z,100781.55
2023-09-01T07:40:59.078Z,100774.02
2023-09-01T07:42:04.556Z,100774.42
2023-09-01T07:43:10.037Z,100784
2023-09-01T07:44:15.540Z,100773.27
2023-09-01T07:45:21.225Z,100786.84
2023-09-01T07:46:26.808Z,100781.55
2023-09-01T07:47:32.388Z,100784.67
2023-09-01T07:48:38.097Z,100782.33
2023-09-01T07:49:43.891Z,100783.67
2023-09-01T07:50:49.503Z,100777.03
2023-09-01T07:51:55.213Z,100784.08
2023-09-01T07:53:00.729Z,100784.16
2023-09-01T07:54:06.190Z,100784.91
2023-09-01T07:55:11.737Z,100785.01
2023-09-01T07:56:17.225Z,100782.73
2023-09-01T07:57:23.044Z,100781.81
2023-09-01T07:58:28.517Z,100776.52
2023-09-01T07:59:34.032Z,100785.13
2023-09-01T08:00:39.698Z,100779.72
2023-09-01T08:01:45.338Z,100775.09
2023-09-01T08:02:52.526Z,100787.17
2023-09-01T08:03:59.122Z,100783.15
2023-09-01T08:05:04.745Z,100784.16
2023-09-01T08:06:10.205Z,100782.81
2023-09-01T08:07:15.767Z,100786.77
2023-09-01T08:08:21.264Z,100782.22
2023-09-01T08:09:26.743Z,100783.56
2023-09-01T08:10:32.250Z,100785.76
2023-09-01T08:11:37.739Z,100784.49
2023-09-01T08:12:46.259Z,100789.86
2023-09-01T08:13:51.763Z,100786.77
2023-09-01T08:14:57.253Z,100786.42
2023-09-01T08:16:02.820Z,100782.22
2023-09-01T08:17:08.299Z,100784.49
2023-09-01T08:18:14.213Z,100781.81
2023-09-01T08:19:20.101Z,100780.54
2023-09-01T08:20:25.657Z,100788.86
2023-09-01T08:21:31.160Z,100789.37
2023-09-01T08:22:36.687Z,100796.09
2023-09-01T08:23:42.152Z,100788.45
2023-09-01T08:24:47.649Z,100792.14
2023-09-01T08:25:53.197Z,100787.7
2023-09-01T08:26:58.632Z,100784.56
2023-09-01T08:28:04.134Z,100784.23
2023-09-01T08:29:09.594Z,100780.05
2023-09-01T08:30:15.057Z,100788.86
2023-09-01T08:31:20.706Z,100784.41
2023-09-01T08:32:26.440Z,100784.83
2023-09-01T08:33:31.905Z,100785.69
2023-09-01T08:34:37.567Z,100788.78
2023-09-01T08:35:43.086Z,100783.41
2023-09-01T08:36:48.624Z,100789.78
2023-09-01T08:37:54.089Z,100789.19
2023-09-01T08:38:59.547Z,100790.13
2023-09-01T08:40:05.050Z,100788.78
2023-09-01T08:41:10.561Z,100787.52
2023-09-01T08:42:16.288Z,100788.38
2023-09-01T08:43:21.845Z,100788.59
2023-09-01T08:44:27.350Z,100786.84
2023-09-01T08:45:32.806Z,100786.06
2023-09-01T08:46:38.383Z,100788.82
2023-09-01T08:47:44.035Z,100782.63
2023-09-01T08:48:49.669Z,100784.87
2023-09-01T08:49:55.208Z,100782.77
2023-09-01T08:51:00.749Z,100782.36
2023-09-01T08:52:06.360Z,100775.83
2023-09-01T08:53:11.883Z,100782.44
2023-09-01T08:54:17.353Z,100786.98
2023-09-01T08:55:22.845Z,100783.96
2023-09-01T08:56:28.330Z,100783.2
2023-09-01T08:57:33.817Z,100790
2023-09-01T08:58:39.550Z,100790.93
2023-09-01T08:59:45.033Z,100783.29
2023-09-01T09:00:50.488Z,100779.19
2023-09-01T09:01:56.333Z,100788.81
2023-09-01T09:03:09.685Z,100780.34
2023-09-01T09:04:15.513Z,100784.89
2023-09-01T09:05:21.123Z,100793.84
2023-09-01T09:06:26.760Z,100785.3
2023-09-01T09:07:32.263Z,100791.61
2023-09-01T09:08:37.740Z,100784.89
2023-09-01T09:09:43.219Z,100791.16
2023-09-01T09:10:48.888Z,100786.72
2023-09-01T09:11:54.405Z,100784.22
2023-09-01T09:12:59.867Z,100789.59
2023-09-01T09:14:11.882Z,100785.97
2023-09-01T09:15:17.399Z,100785.79
2023-09-01T09:16:23.093Z,100785.9
2023-09-01T09:17:28.640Z,100787.31
2023-09-01T09:18:34.568Z,100789.48
2023-09-01T09:19:43.898Z,100790.34
2023-09-01T09:20:49.511Z,100790.41
2023-09-01T09:21:55.012Z,100786.72
2023-09-01T09:23:00.535Z,100786.31
2023-09-01T09:24:23.577Z,100782.77
2023-09-01T09:25:29.176Z,100784.78
2023-09-01T09:26:34.714Z,100781.02
2023-09-01T09:27:40.186Z,100779.67
2023-09-01T09:28:45.671Z,100778.25
2023-09-01T09:29:51.276Z,100774.82
2023-09-01T09:30:56.825Z,100781.53
2023-09-01T09:32:02.397Z,100780.6
2023-09-01T09:33:08.199Z,100783.95
2023-09-01T09:34:13.818Z,100784.55
2023-09-01T09:35:19.322Z,100790.25
2023-09-01T09:36:24.796Z,100778.59
2023-09-01T09:37:30.272Z,100779.93
2023-09-01T09:38:35.736Z,100781.27
2023-09-01T09:39:41.304Z,100770.61
2023-09-01T09:40:46.809Z,100776.39
2023-09-01T09:41:52.279Z,100774.56
2023-09-01T09:42:57.751Z,100786.13
2023-09-01T09:44:03.267Z,100771.69
2023-09-01T09:45:08.897Z,100775.83
2023-09-01T09:46:14.511Z,100778.84
2023-09-01T09:47:20.127Z,100779.26
2023-09-01T09:48:25.750Z,100778.84
2023-09-01T09:49:31.381Z,100774.48
2023-09-01T09:50:36.921Z,100783.7
2023-09-01T09:51:42.381Z,100774.81
2023-09-01T09:52:47.867Z,100775.64
2023-09-01T09:53:53.350Z,100778.33
2023-09-01T09:54:59.394Z,100785.22
2023-09-01T09:56:04.990Z,100786.04
2023-09-01T09:57:12.783Z,100789.14
2023-09-01T09:58:18.881Z,100793.61
2023-09-01T09:59:24.506Z,100784.62
2023-09-01T10:00:30.078Z,100781.08
2023-09-01T10:01:37.014Z,100782.87
2023-09-01T10:02:43.618Z,100778.84
2023-09-01T10:03:49.422Z,100786.79
2023-09-01T10:04:54.955Z,100786.72
2023-09-01T10:06:00.447Z,100788.05
2023-09-01T10:07:06.061Z,100789.4
2023-09-01T10:08:11.754Z,100792.02
2023-09-01T10:09:17.720Z,100792.16
2023-09-01T10:10:23.228Z,100795.36
2023-09-01T10:11:28.749Z,100800.39
2023-09-01T10:12:34.244Z,100796.3
2023-09-01T10:13:39.717Z,100798.2
2023-09-01T10:14:45.201Z,100801.98
2023-09-01T10:15:50.708Z,100797.52
2023-09-01T10:16:56.279Z,100792
2023-09-01T10:18:01.940Z,100793.27
2023-09-01T10:19:07.512Z,100793.76
2023-09-01T10:20:13.028Z,100792
2023-09-01T10:21:18.542Z,100790.14
2023-09-01T10:22:24.098Z,100787.05
2023-09-01T10:23:29.557Z,100801.33
2023-09-01T10:24:35.021Z,100789.39
2023-09-01T10:25:40.534Z,100790.25
2023-09-01T10:26:46.560Z,100793.42
2023-09-01T10:27:52.063Z,100792.08
2023-09-01T10:28:57.592Z,100788.91
2023-09-01T10:30:03.081Z,100789.39
2023-09-01T10:31:08.664Z,100789.47
2023-09-01T10:32:14.212Z,100793.94
2023-09-01T10:33:19.891Z,100787.23
2023-09-01T10:34:25.424Z,100789.98
2023-09-01T10:35:30.892Z,100789.05
2023-09-01T10:36:36.402Z,100784.54
2023-09-01T10:37:41.887Z,100786.78
2023-09-01T10:38:47.406Z,100789.58
2023-09-01T10:39:52.915Z,100787.64
2023-09-01T10:40:58.389Z,100788.98
2023-09-01T10:42:03.915Z,100789.05
2023-09-01T10:43:09.405Z,100789.39
2023-09-01T10:44:14.883Z,100784.95
2023-09-01T10:45:20.370Z,100782.69
2023-09-01T10:46:25.903Z,100787.64
2023-09-01T10:47:31.472Z,100787.98
2023-09-01T10:48:37.071Z,100788.8
2023-09-01T10:49:42.549Z,100783.43
2023-09-01T10:50:48.079Z,100790.48
2023-09-01T10:51:53.554Z,100793.61
2023-09-01T10:52:59.130Z,100782.87
2023-09-01T10:54:04.682Z,100786.37
2023-09-01T10:55:10.188Z,100782.35
2023-09-01T10:56:15.770Z,100774.3
2023-09-01T10:57:21.308Z,100789.06
2023-09-01T10:58:26.785Z,100780.67
2023-09-01T10:59:32.274Z,100788.23
2023-09-01T11:00:37.816Z,100781.19
2023-09-01T11:01:43.329Z,100783.88
2023-09-01T11:02:48.993Z,100787.98
2023-09-01T11:03:54.563Z,100787.56
2023-09-01T11:05:00.102Z,100784.02
2023-09-01T11:06:05.636Z,100785.44
2023-09-01T11:07:12.291Z,100778.31
2023-09-01T11:08:18.507Z,100781.86
2023-09-01T11:09:24.260Z,100777.83
2023-09-01T11:10:29.794Z,100784.95
2023-09-01T11:11:35.323Z,100777.83
2023-09-01T11:12:40.899Z,100779.66
2023-09-01T11:13:46.495Z,100791.66
2023-09-01T11:14:51.975Z,100784.95
2023-09-01T11:15:57.454Z,100779.32
2023-09-01T11:17:03.055Z,100781.94
2023-09-01T11:18:10.315Z,100778.84
2023-09-01T11:19:15.986Z,100784.95
2023-09-01T11:20:21.579Z,100784.09
2023-09-01T11:21:27.126Z,100785.03
2023-09-01T11:22:32.673Z,100787.56
2023-09-01T11:23:38.163Z,100782.61
2023-09-01T11:24:43.711Z,100784.88
2023-09-01T11:25:49.174Z,100784.54
2023-09-01T11:26:54.654Z,100782.69
2023-09-01T11:28:00.154Z,100779.06
2023-09-01T11:29:05.609Z,100784.02
2023-09-01T11:30:11.097Z,100783.95
2023-09-01T11:31:16.683Z,100785.78
2023-09-01T11:32:22.271Z,100786.22
2023-09-01T11:33:28.193Z,100774.29
2023-09-01T11:34:33.904Z,100784.95
2023-09-01T11:35:39.405Z,100777.91
2023-09-01T11:36:44.900Z,100779.25
2023-09-01T11:37:50.389Z,100783.34
2023-09-01T11:38:55.909Z,100786.03
2023-09-01T11:40:01.731Z,100785.21
2023-09-01T11:41:07.608Z,100782.52
2023-09-01T11:42:13.252Z,100780.25
2023-09-01T11:43:18.958Z,100785.1
2023-09-01T11:44:24.462Z,100787.38
2023-09-01T11:45:29.989Z,100783.09
2023-09-01T11:46:35.790Z,100789.72
2023-09-01T11:47:41.342Z,100786.11
2023-09-01T11:48:46.842Z,100781.19
2023-09-01T11:49:52.423Z,100787.89
2023-09-01T11:50:57.905Z,100785.1
2023-09-01T11:52:03.442Z,100788.64
2023-09-01T11:53:08.930Z,100781.41
2023-09-01T11:54:14.447Z,100780.92
2023-09-01T11:55:20.036Z,100780.41
2023-09-01T11:56:25.716Z,100775.04
2023-09-01T11:57:31.800Z,100780.33
2023-09-01T11:58:37.294Z,100778.99
2023-09-01T11:59:42.896Z,100783.02
2023-09-01T12:00:48.426Z,100781.67
2023-09-01T12:01:54.050Z,100779.84
2023-09-01T12:02:59.712Z,100780.67
2023-09-01T12:04:05.417Z,100779.73
2023-09-01T12:05:11.302Z,100792.67
2023-09-01T12:06:16.796Z,100794.09
2023-09-01T12:07:22.264Z,100790.14
2023-09-01T12:08:27.831Z,100794.17
2023-09-01T12:09:33.407Z,100791.92
2023-09-01T12:10:41.811Z,100788.8
2023-09-01T12:11:47.293Z,100786.56
2023-09-01T12:12:52.780Z,100783.53
2023-09-01T12:13:58.243Z,100784.88
2023-09-01T12:15:03.734Z,100778.66
2023-09-01T12:16:09.344Z,100788.05
2023-09-01T12:17:15.036Z,100789.39
2023-09-01T12:18:20.688Z,100786.3
2023-09-01T12:19:26.256Z,100781.75
2023-09-01T12:20:31.889Z,100779.66
2023-09-01T12:21:37.442Z,100788.12
2023-09-01T12:22:43.013Z,100785.44
2023-09-01T12:23:48.537Z,100791.73
2023-09-01T12:24:54.059Z,100782.75
2023-09-01T12:25:59.581Z,100781.41
2023-09-01T12:27:05.085Z,100781.52
2023-09-01T12:28:10.645Z,100784.09
2023-09-01T12:29:16.133Z,100781.52
2023-09-01T12:30:24.271Z,100786.97
2023-09-01T12:31:29.961Z,100783.42